sensor_id;sensor_type;location;lat;lon;timestamp;pressure;altitude;pressure_sealevel;temperature;humidity
43125;BME280;49182;50.788;7.318;2022-08-11T00:02:16;101396.69;;;17.49;55.59
43125;BME280;49182;50.788;7.318;2022-08-11T00:04:49;101390.84;;;17.46;55.76
43125;BME280;49182;50.788;7.318;2022-08-11T00:07:18;101385.31;;;17.39;55.67
43125;BME280;49182;50.788;7.318;2022-08-11T00:09:45;101398.66;;;17.39;56.01
43125;BME280;49182;50.788;7.318;2022-08-11T00:12:14;101398.31;;;17.34;55.87
43125;BME280;49182;50.788;7.318;2022-08-11T00:14:42;101391.75;;;17.28;56.09
43125;BME280;49182;50.788;7.318;2022-08-11T00:17:11;101391.09;;;17.26;56.81
43125;BME280;49182;50.788;7.318;2022-08-11T00:19:41;101390.94;;;17.28;57.02
43125;BME280;49182;50.788;7.318;2022-08-11T00:22:31;101369.13;;;17.07;56.95
43125;BME280;49182;50.788;7.318;2022-08-11T00:25:00;101386.28;;;17.04;57.40
43125;BME280;49182;50.788;7.318;2022-08-11T00:27:32;101372.91;;;16.96;57.67
43125;BME280;49182;50.788;7.318;2022-08-11T00:29:59;101390.25;;;17.00;57.58
43125;BME280;49182;50.788;7.318;2022-08-11T00:32:26;101357.88;;;16.69;58.17
43125;BME280;49182;50.788;7.318;2022-08-11T00:34:54;101397.81;;;16.87;57.94
43125;BME280;49182;50.788;7.318;2022-08-11T00:37:47;101397.47;;;16.82;58.26
43125;BME280;49182;50.788;7.318;2022-08-11T00:40:18;101391.00;;;16.84;58.45
43125;BME280;49182;50.788;7.318;2022-08-11T00:42:56;101400.28;;;16.80;58.47
43125;BME280;49182;50.788;7.318;2022-08-11T00:45:29;101396.72;;;16.72;58.27
43125;BME280;49182;50.788;7.318;2022-08-11T00:48:02;101401.38;;;16.70;59.19
43125;BME280;49182;50.788;7.318;2022-08-11T00:50:41;101404.94;;;16.61;58.89
43125;BME280;49182;50.788;7.318;2022-08-11T00:53:38;101393.38;;;16.52;59.16
43125;BME280;49182;50.788;7.318;2022-08-11T00:56:44;101380.88;;;16.35;59.37
43125;BME280;49182;50.788;7.318;2022-08-11T00:59:45;101399.09;;;16.39;60.14
43125;BME280;49182;50.788;7.318;2022-08-11T01:02:16;101387.59;;;16.21;59.55
43125;BME280;49182;50.788;7.318;2022-08-11T01:08:27;101399.00;;;16.13;60.55
43125;BME280;49182;50.788;7.318;2022-08-11T01:11:15;101393.88;;;16.02;60.72
43125;BME280;49182;50.788;7.318;2022-08-11T01:14:26;101400.94;;;15.94;61.26
43125;BME280;49182;50.788;7.318;2022-08-11T01:17:11;101403.53;;;15.86;61.74
43125;BME280;49182;50.788;7.318;2022-08-11T01:23:29;101409.47;;;15.70;62.40
43125;BME280;49182;50.788;7.318;2022-08-11T01:26:51;101404.34;;;15.59;62.77
43125;BME280;49182;50.788;7.318;2022-08-11T01:30:05;101396.81;;;15.45;62.97
43125;BME280;49182;50.788;7.318;2022-08-11T01:33:07;101407.59;;;15.43;63.27
43125;BME280;49182;50.788;7.318;2022-08-11T01:39:01;101401.50;;;15.33;64.00
43125;BME280;49182;50.788;7.318;2022-08-11T01:42:00;101408.94;;;15.29;63.68
43125;BME280;49182;50.788;7.318;2022-08-11T01:45:10;101408.94;;;15.20;64.14
43125;BME280;49182;50.788;7.318;2022-08-11T01:47:48;101402.38;;;15.14;63.94
43125;BME280;49182;50.788;7.318;2022-08-11T01:50:38;101400.31;;;15.08;63.99
43125;BME280;49182;50.788;7.318;2022-08-11T01:53:20;101400.59;;;15.05;64.13
43125;BME280;49182;50.788;7.318;2022-08-11T01:55:58;101399.91;;;15.03;64.75
43125;BME280;49182;50.788;7.318;2022-08-11T01:58:34;101396.28;;;14.94;65.28
43125;BME280;49182;50.788;7.318;2022-08-11T02:01:26;101410.97;;;14.98;64.74
43125;BME280;49182;50.788;7.318;2022-08-11T02:04:12;101409.44;;;14.96;64.77
43125;BME280;49182;50.788;7.318;2022-08-11T02:06:46;101413.38;;;14.92;64.71
43125;BME280;49182;50.788;7.318;2022-08-11T02:09:25;101416.28;;;14.89;64.88
43125;BME280;49182;50.788;7.318;2022-08-11T02:12:02;101412.25;;;14.85;65.08
43125;BME280;49182;50.788;7.318;2022-08-11T02:14:41;101419.81;;;14.80;65.12
43125;BME280;49182;50.788;7.318;2022-08-11T02:17:44;101413.94;;;14.76;65.49
43125;BME280;49182;50.788;7.318;2022-08-11T02:20:19;101412.41;;;14.74;65.47
43125;BME280;49182;50.788;7.318;2022-08-11T02:22:51;101405.97;;;14.67;65.94
43125;BME280;49182;50.788;7.318;2022-08-11T02:25:27;101413.97;;;14.67;65.79
43125;BME280;49182;50.788;7.318;2022-08-11T02:28:03;101411.03;;;14.60;65.90
43125;BME280;49182;50.788;7.318;2022-08-11T02:30:36;101406.69;;;14.49;65.84
43125;BME280;49182;50.788;7.318;2022-08-11T02:33:13;101414.81;;;14.48;65.71
43125;BME280;49182;50.788;7.318;2022-08-11T02:35:46;101400.78;;;14.36;66.47
43125;BME280;49182;50.788;7.318;2022-08-11T02:38:25;101414.09;;;14.46;66.68
43125;BME280;49182;50.788;7.318;2022-08-11T02:41:00;101414.53;;;14.41;66.86
43125;BME280;49182;50.788;7.318;2022-08-11T02:43:38;101412.38;;;14.35;67.11
43125;BME280;49182;50.788;7.318;2022-08-11T02:46:19;101410.00;;;14.32;67.58
43125;BME280;49182;50.788;7.318;2022-08-11T02:48:58;101416.44;;;14.30;67.79
43125;BME280;49182;50.788;7.318;2022-08-11T02:51:48;101421.03;;;14.28;68.31
43125;BME280;49182;50.788;7.318;2022-08-11T02:54:27;101422.56;;;14.21;68.32
43125;BME280;49182;50.788;7.318;2022-08-11T02:57:01;101418.78;;;14.13;68.45
43125;BME280;49182;50.788;7.318;2022-08-11T02:59:45;101422.28;;;14.14;69.02
43125;BME280;49182;50.788;7.318;2022-08-11T03:02:19;101416.66;;;14.07;68.99
43125;BME280;49182;50.788;7.318;2022-08-11T03:05:02;101424.22;;;14.02;68.96
43125;BME280;49182;50.788;7.318;2022-08-11T03:07:35;101428.84;;;14.00;69.19
43125;BME280;49182;50.788;7.318;2022-08-11T03:10:10;101420.88;;;14.00;69.63
43125;BME280;49182;50.788;7.318;2022-08-11T03:12:45;101427.16;;;13.99;69.44
43125;BME280;49182;50.788;7.318;2022-08-11T03:15:22;101411.59;;;13.85;69.45
43125;BME280;49182;50.788;7.318;2022-08-11T03:18:00;101422.53;;;13.92;69.63
43125;BME280;49182;50.788;7.318;2022-08-11T03:20:38;101422.66;;;13.90;69.57
43125;BME280;49182;50.788;7.318;2022-08-11T03:23:16;101415.94;;;13.86;69.84
43125;BME280;49182;50.788;7.318;2022-08-11T03:25:54;101419.13;;;13.80;70.21
43125;BME280;49182;50.788;7.318;2022-08-11T03:28:31;101411.84;;;13.72;70.07
43125;BME280;49182;50.788;7.318;2022-08-11T03:31:22;101412.97;;;13.70;70.28
43125;BME280;49182;50.788;7.318;2022-08-11T03:33:53;101414.06;;;13.67;70.48
43125;BME280;49182;50.788;7.318;2022-08-11T03:36:52;101416.97;;;13.64;70.34
43125;BME280;49182;50.788;7.318;2022-08-11T03:39:45;101415.69;;;13.59;70.71
43125;BME280;49182;50.788;7.318;2022-08-11T03:42:27;101422.38;;;13.53;70.66
43125;BME280;49182;50.788;7.318;2022-08-11T03:45:16;101392.28;;;13.33;71.03
43125;BME280;49182;50.788;7.318;2022-08-11T03:48:02;101425.97;;;13.43;70.76
43125;BME280;49182;50.788;7.318;2022-08-11T03:50:52;101420.53;;;13.44;71.13
43125;BME280;49182;50.788;7.318;2022-08-11T03:53:41;101421.63;;;13.42;71.04
43125;BME280;49182;50.788;7.318;2022-08-11T03:56:34;101422.59;;;13.41;71.09
43125;BME280;49182;50.788;7.318;2022-08-11T03:59:28;101422.59;;;13.41;71.64
43125;BME280;49182;50.788;7.318;2022-08-11T04:02:18;101416.75;;;13.37;71.75
43125;BME280;49182;50.788;7.318;2022-08-11T04:05:26;101423.13;;;13.34;72.00
43125;BME280;49182;50.788;7.318;2022-08-11T04:08:19;101420.03;;;13.29;72.28
43125;BME280;49182;50.788;7.318;2022-08-11T04:11:26;101429.50;;;13.22;72.87
43125;BME280;49182;50.788;7.318;2022-08-11T04:14:24;101426.00;;;13.22;73.05
43125;BME280;49182;50.788;7.318;2022-08-11T04:23:19;101423.03;;;13.15;73.42
43125;BME280;49182;50.788;7.318;2022-08-11T04:26:46;101424.16;;;13.13;73.48
43125;BME280;49182;50.788;7.318;2022-08-11T04:29:31;101381.50;;;12.84;73.71
43125;BME280;49182;50.788;7.318;2022-08-11T04:32:54;101425.09;;;13.12;73.77
43125;BME280;49182;50.788;7.318;2022-08-11T04:35:36;101409.38;;;12.99;73.60
43125;BME280;49182;50.788;7.318;2022-08-11T04:38:26;101424.38;;;13.10;73.90
43125;BME280;49182;50.788;7.318;2022-08-11T04:41:19;101413.19;;;13.06;73.73
43125;BME280;49182;50.788;7.318;2022-08-11T04:47:31;101433.00;;;13.53;72.41
43125;BME280;49182;50.788;7.318;2022-08-11T04:50:36;101426.78;;;13.73;71.97
43125;BME280;49182;50.788;7.318;2022-08-11T04:53:46;101425.97;;;13.83;71.03
43125;BME280;49182;50.788;7.318;2022-08-11T04:56:20;101428.09;;;13.89;70.71
43125;BME280;49182;50.788;7.318;2022-08-11T04:58:59;101450.63;;;14.04;70.38
43125;BME280;49182;50.788;7.318;2022-08-11T05:01:39;101418.06;;;13.92;70.37
43125;BME280;49182;50.788;7.318;2022-08-11T05:04:26;101450.81;;;14.12;70.24
43125;BME280;49182;50.788;7.318;2022-08-11T05:07:25;101451.50;;;14.14;70.11
43125;BME280;49182;50.788;7.318;2022-08-11T05:10:09;101455.28;;;14.11;70.51
43125;BME280;49182;50.788;7.318;2022-08-11T05:12:42;101453.16;;;14.15;70.79
43125;BME280;49182;50.788;7.318;2022-08-11T05:15:13;101451.22;;;14.17;70.59
43125;BME280;49182;50.788;7.318;2022-08-11T05:17:45;101434.28;;;14.08;70.39
43125;BME280;49182;50.788;7.318;2022-08-11T05:20:18;101425.47;;;14.08;70.58
43125;BME280;49182;50.788;7.318;2022-08-11T05:22:49;101390.25;;;13.87;70.82
43125;BME280;49182;50.788;7.318;2022-08-11T05:25:21;101443.69;;;14.22;70.64
43125;BME280;49182;50.788;7.318;2022-08-11T05:28:11;101430.41;;;14.12;70.61
43125;BME280;49182;50.788;7.318;2022-08-11T05:30:40;101456.28;;;14.30;70.51
43125;BME280;49182;50.788;7.318;2022-08-11T05:33:11;101446.78;;;14.37;70.22
43125;BME280;49182;50.788;7.318;2022-08-11T05:35:42;101450.06;;;14.50;70.23
43125;BME280;49182;50.788;7.318;2022-08-11T05:38:33;101455.50;;;14.58;69.67
43125;BME280;49182;50.788;7.318;2022-08-11T05:41:00;101453.69;;;14.68;69.69
43125;BME280;49182;50.788;7.318;2022-08-11T05:43:27;101447.94;;;14.73;69.89
43125;BME280;49182;50.788;7.318;2022-08-11T05:45:58;101454.94;;;14.83;69.80
43125;BME280;49182;50.788;7.318;2022-08-11T05:48:33;101456.59;;;14.94;69.69
43125;BME280;49182;50.788;7.318;2022-08-11T05:54:23;101457.81;;;15.19;69.00
43125;BME280;49182;50.788;7.318;2022-08-11T05:56:56;101458.78;;;15.27;68.92
43125;BME280;49182;50.788;7.318;2022-08-11T05:59:26;101450.22;;;15.33;68.48
43125;BME280;49182;50.788;7.318;2022-08-11T06:01:59;101468.84;;;15.53;67.91
43125;BME280;49182;50.788;7.318;2022-08-11T06:04:27;101460.38;;;15.67;67.60
43125;BME280;49182;50.788;7.318;2022-08-11T06:06:56;101456.38;;;15.81;67.45
43125;BME280;49182;50.788;7.318;2022-08-11T06:09:27;101448.22;;;15.92;67.32
43125;BME280;49182;50.788;7.318;2022-08-11T06:11:57;101454.84;;;16.05;66.93
43125;BME280;49182;50.788;7.318;2022-08-11T06:14:24;101455.47;;;16.17;66.80
43125;BME280;49182;50.788;7.318;2022-08-11T06:16:54;101460.28;;;16.31;66.30
43125;BME280;49182;50.788;7.318;2022-08-11T06:19:23;101445.38;;;16.38;66.01
43125;BME280;49182;50.788;7.318;2022-08-11T06:21:56;101461.09;;;16.59;65.48
43125;BME280;49182;50.788;7.318;2022-08-11T06:24:23;101459.72;;;16.73;65.32
43125;BME280;49182;50.788;7.318;2022-08-11T06:26:51;101452.50;;;16.83;64.93
43125;BME280;49182;50.788;7.318;2022-08-11T06:29:45;101461.44;;;16.99;65.13
43125;BME280;49182;50.788;7.318;2022-08-11T06:32:23;101450.53;;;17.11;64.71
43125;BME280;49182;50.788;7.318;2022-08-11T06:35:00;101451.63;;;17.26;64.28
43125;BME280;49182;50.788;7.318;2022-08-11T06:37:38;101446.38;;;17.42;64.34
43125;BME280;49182;50.788;7.318;2022-08-11T06:40:08;101444.13;;;17.55;63.79
43125;BME280;49182;50.788;7.318;2022-08-11T06:42:50;101446.25;;;17.69;63.46
43125;BME280;49182;50.788;7.318;2022-08-11T06:45:27;101441.78;;;17.86;63.39
43125;BME280;49182;50.788;7.318;2022-08-11T06:47:56;101437.47;;;17.93;63.35
43125;BME280;49182;50.788;7.318;2022-08-11T06:50:23;101451.06;;;18.16;62.92
43125;BME280;49182;50.788;7.318;2022-08-11T06:52:52;101352.75;;;17.69;62.47
43125;BME280;49182;50.788;7.318;2022-08-11T06:55:22;101445.97;;;18.47;61.77
43125;BME280;49182;50.788;7.318;2022-08-11T06:58:13;101445.84;;;18.65;60.94
43125;BME280;49182;50.788;7.318;2022-08-11T07:00:43;101445.84;;;18.89;59.58
43125;BME280;49182;50.788;7.318;2022-08-11T07:03:16;101449.84;;;19.01;59.69
43125;BME280;49182;50.788;7.318;2022-08-11T07:05:44;101444.50;;;19.17;59.65
43125;BME280;49182;50.788;7.318;2022-08-11T07:08:26;101438.94;;;19.35;58.83
43125;BME280;49182;50.788;7.318;2022-08-11T07:11:18;101443.94;;;19.54;57.24
43125;BME280;49182;50.788;7.318;2022-08-11T07:13:49;101435.50;;;19.73;56.38
43125;BME280;49182;50.788;7.318;2022-08-11T07:16:24;101437.94;;;19.91;54.60
43125;BME280;49182;50.788;7.318;2022-08-11T07:18:54;101436.66;;;20.10;54.62
43125;BME280;49182;50.788;7.318;2022-08-11T07:21:27;101422.00;;;20.20;53.77
43125;BME280;49182;50.788;7.318;2022-08-11T07:24:16;101422.72;;;20.45;52.83
43125;BME280;49182;50.788;7.318;2022-08-11T07:27:00;101431.56;;;20.69;50.17
43125;BME280;49182;50.788;7.318;2022-08-11T07:29:32;101431.75;;;20.90;50.22
43125;BME280;49182;50.788;7.318;2022-08-11T07:32:09;101424.47;;;21.13;48.72
43125;BME280;49182;50.788;7.318;2022-08-11T07:34:40;101425.06;;;21.38;47.37
43125;BME280;49182;50.788;7.318;2022-08-11T07:37:13;101425.63;;;21.63;46.65
43125;BME280;49182;50.788;7.318;2022-08-11T07:39:41;101429.78;;;21.80;46.11
43125;BME280;49182;50.788;7.318;2022-08-11T07:42:10;101417.19;;;21.95;45.61
43125;BME280;49182;50.788;7.318;2022-08-11T07:44:39;101427.22;;;22.23;45.50
43125;BME280;49182;50.788;7.318;2022-08-11T07:47:09;101421.59;;;22.39;45.49
43125;BME280;49182;50.788;7.318;2022-08-11T07:49:37;101390.75;;;22.41;44.19
43125;BME280;49182;50.788;7.318;2022-08-11T07:52:04;101418.09;;;22.81;42.13
43125;BME280;49182;50.788;7.318;2022-08-11T07:54:33;101414.75;;;23.07;41.35
43125;BME280;49182;50.788;7.318;2022-08-11T07:57:02;101408.47;;;23.27;40.87
43125;BME280;49182;50.788;7.318;2022-08-11T07:59:50;101419.44;;;23.54;40.06
43125;BME280;49182;50.788;7.318;2022-08-11T08:02:37;101419.72;;;23.72;40.41
43125;BME280;49182;50.788;7.318;2022-08-11T08:05:05;101416.69;;;23.95;39.53
43125;BME280;49182;50.788;7.318;2022-08-11T08:07:33;101415.31;;;24.12;39.25
43125;BME280;49182;50.788;7.318;2022-08-11T08:10:00;101420.19;;;24.36;37.77
43125;BME280;49182;50.788;7.318;2022-08-11T08:12:28;101421.03;;;24.56;37.33
43125;BME280;49182;50.788;7.318;2022-08-11T08:14:57;101420.44;;;24.74;36.63
43125;BME280;49182;50.788;7.318;2022-08-11T08:17:27;101425.00;;;24.80;37.29
43125;BME280;49182;50.788;7.318;2022-08-11T08:19:55;101422.94;;;24.95;37.15
43125;BME280;49182;50.788;7.318;2022-08-11T08:22:22;101425.19;;;25.18;35.00
43125;BME280;49182;50.788;7.318;2022-08-11T08:25:05;101327.75;;;24.74;35.72
43125;BME280;49182;50.788;7.318;2022-08-11T08:27:33;101423.50;;;25.37;35.91
43125;BME280;49182;50.788;7.318;2022-08-11T08:30:03;101425.31;;;25.56;35.45
43125;BME280;49182;50.788;7.318;2022-08-11T08:32:31;101414.91;;;25.73;34.36
43125;BME280;49182;50.788;7.318;2022-08-11T08:34:58;101422.94;;;25.86;34.35
43125;BME280;49182;50.788;7.318;2022-08-11T08:37:25;101420.63;;;25.96;34.36
43125;BME280;49182;50.788;7.318;2022-08-11T08:40:14;101407.47;;;26.06;33.65
43125;BME280;49182;50.788;7.318;2022-08-11T08:42:46;101400.13;;;26.13;34.12
43125;BME280;49182;50.788;7.318;2022-08-11T08:45:16;101394.03;;;26.25;33.69
43125;BME280;49182;50.788;7.318;2022-08-11T08:47:45;101418.03;;;26.52;32.33
43125;BME280;49182;50.788;7.318;2022-08-11T08:50:20;101408.53;;;26.68;32.25
43125;BME280;49182;50.788;7.318;2022-08-11T08:52:57;101404.66;;;26.82;31.80
43125;BME280;49182;50.788;7.318;2022-08-11T08:55:27;101411.19;;;27.00;31.77
43125;BME280;49182;50.788;7.318;2022-08-11T08:57:55;101404.41;;;27.15;31.20
43125;BME280;49182;50.788;7.318;2022-08-11T09:00:38;101396.91;;;27.11;30.27
43125;BME280;49182;50.788;7.318;2022-08-11T09:03:05;101407.56;;;27.30;30.54
43125;BME280;49182;50.788;7.318;2022-08-11T09:05:52;101397.75;;;27.48;30.72
43125;BME280;49182;50.788;7.318;2022-08-11T09:08:21;101408.28;;;27.62;29.70
43125;BME280;49182;50.788;7.318;2022-08-11T09:10:49;101410.00;;;27.75;29.58
43125;BME280;49182;50.788;7.318;2022-08-11T09:13:16;101402.34;;;27.84;29.47
43125;BME280;49182;50.788;7.318;2022-08-11T09:15:45;101406.19;;;27.94;29.15
43125;BME280;49182;50.788;7.318;2022-08-11T09:18:16;101399.63;;;28.02;29.22
43125;BME280;49182;50.788;7.318;2022-08-11T09:20:43;101400.88;;;28.17;28.92
43125;BME280;49182;50.788;7.318;2022-08-11T09:23:10;101409.06;;;28.29;28.44
43125;BME280;49182;50.788;7.318;2022-08-11T09:25:58;101401.66;;;28.36;28.40
43125;BME280;49182;50.788;7.318;2022-08-11T09:28:27;101402.50;;;28.48;27.94
43125;BME280;49182;50.788;7.318;2022-08-11T09:30:58;101402.75;;;28.58;27.11
43125;BME280;49182;50.788;7.318;2022-08-11T09:33:27;101397.94;;;28.72;26.69
43125;BME280;49182;50.788;7.318;2022-08-11T09:35:55;101384.50;;;28.77;26.22
43125;BME280;49182;50.788;7.318;2022-08-11T09:38:25;101381.53;;;28.79;26.42
43125;BME280;49182;50.788;7.318;2022-08-11T09:40:53;101365.22;;;28.79;26.98
43125;BME280;49182;50.788;7.318;2022-08-11T09:43:23;101368.66;;;28.86;27.31
43125;BME280;49182;50.788;7.318;2022-08-11T09:45:52;101381.88;;;29.17;25.78
43125;BME280;49182;50.788;7.318;2022-08-11T09:48:22;101384.50;;;29.24;26.01
43125;BME280;49182;50.788;7.318;2022-08-11T09:50:51;101380.59;;;29.31;25.98
43125;BME280;49182;50.788;7.318;2022-08-11T09:53:19;101375.59;;;29.40;25.81
43125;BME280;49182;50.788;7.318;2022-08-11T09:56:05;101371.69;;;29.48;25.44
43125;BME280;49182;50.788;7.318;2022-08-11T09:58:32;101364.56;;;29.58;25.11
43125;BME280;49182;50.788;7.318;2022-08-11T10:01:09;101374.75;;;29.51;24.79
43125;BME280;49182;50.788;7.318;2022-08-11T10:03:40;101349.56;;;29.56;25.22
43125;BME280;49182;50.788;7.318;2022-08-11T10:06:08;101355.78;;;29.68;25.25
43125;BME280;49182;50.788;7.318;2022-08-11T10:08:38;101357.94;;;29.83;25.12
43125;BME280;49182;50.788;7.318;2022-08-11T10:11:08;101345.16;;;29.83;25.14
43125;BME280;49182;50.788;7.318;2022-08-11T10:13:42;101352.91;;;30.03;25.13
43125;BME280;49182;50.788;7.318;2022-08-11T10:16:31;101348.16;;;30.10;25.15
43125;BME280;49182;50.788;7.318;2022-08-11T10:19:03;101349.50;;;30.24;24.44
43125;BME280;49182;50.788;7.318;2022-08-11T10:21:35;101346.34;;;30.32;24.75
43125;BME280;49182;50.788;7.318;2022-08-11T10:24:04;101338.69;;;30.29;24.18
43125;BME280;49182;50.788;7.318;2022-08-11T10:26:32;101349.41;;;30.36;24.23
43125;BME280;49182;50.788;7.318;2022-08-11T10:29:00;101341.31;;;30.41;24.08
43125;BME280;49182;50.788;7.318;2022-08-11T10:31:39;101332.63;;;30.44;24.56
43125;BME280;49182;50.788;7.318;2022-08-11T10:34:28;101313.91;;;30.47;23.63
43125;BME280;49182;50.788;7.318;2022-08-11T10:36:57;101338.75;;;30.68;23.79
43125;BME280;49182;50.788;7.318;2022-08-11T10:39:25;101340.75;;;30.72;23.48
43125;BME280;49182;50.788;7.318;2022-08-11T10:41:53;101334.56;;;30.60;23.62
43125;BME280;49182;50.788;7.318;2022-08-11T10:44:38;101316.94;;;30.68;23.39
43125;BME280;49182;50.788;7.318;2022-08-11T10:47:06;101322.50;;;30.73;22.93
43125;BME280;49182;50.788;7.318;2022-08-11T10:49:34;101325.75;;;30.53;23.36
43125;BME280;49182;50.788;7.318;2022-08-11T10:52:02;101310.34;;;30.47;23.50
43125;BME280;49182;50.788;7.318;2022-08-11T10:54:31;101329.34;;;30.75;23.62
43125;BME280;49182;50.788;7.318;2022-08-11T10:56:59;101321.16;;;30.92;22.49
43125;BME280;49182;50.788;7.318;2022-08-11T10:59:27;101315.34;;;30.88;22.69
43125;BME280;49182;50.788;7.318;2022-08-11T11:01:55;101323.50;;;31.05;22.51
43125;BME280;49182;50.788;7.318;2022-08-11T11:04:28;101315.56;;;31.04;22.72
43125;BME280;49182;50.788;7.318;2022-08-11T11:07:04;101293.94;;;30.97;22.11
43125;BME280;49182;50.788;7.318;2022-08-11T11:09:38;101308.94;;;31.16;22.40
43125;BME280;49182;50.788;7.318;2022-08-11T11:12:08;101301.94;;;31.25;22.28
43125;BME280;49182;50.788;7.318;2022-08-11T11:14:37;101302.81;;;31.31;22.51
43125;BME280;49182;50.788;7.318;2022-08-11T11:17:15;101286.84;;;31.40;21.97
43125;BME280;49182;50.788;7.318;2022-08-11T11:19:45;101288.34;;;31.52;21.52
43125;BME280;49182;50.788;7.318;2022-08-11T11:22:14;101290.81;;;31.54;21.24
43125;BME280;49182;50.788;7.318;2022-08-11T11:24:48;101287.81;;;31.55;21.07
43125;BME280;49182;50.788;7.318;2022-08-11T11:27:26;101292.44;;;31.55;21.08
43125;BME280;49182;50.788;7.318;2022-08-11T11:30:02;101273.28;;;31.50;21.22
43125;BME280;49182;50.788;7.318;2022-08-11T11:32:38;101279.38;;;31.57;21.20
43125;BME280;49182;50.788;7.318;2022-08-11T11:35:25;101290.81;;;31.76;20.86
43125;BME280;49182;50.788;7.318;2022-08-11T11:37:57;101265.03;;;31.66;21.24
43125;BME280;49182;50.788;7.318;2022-08-11T11:40:31;101274.44;;;31.81;21.07
43125;BME280;49182;50.788;7.318;2022-08-11T11:42:59;101258.28;;;31.74;20.96
43125;BME280;49182;50.788;7.318;2022-08-11T11:45:27;101287.41;;;31.90;20.42
43125;BME280;49182;50.788;7.318;2022-08-11T11:47:55;101278.88;;;31.87;20.34
43125;BME280;49182;50.788;7.318;2022-08-11T11:50:24;101272.63;;;31.91;20.29
43125;BME280;49182;50.788;7.318;2022-08-11T11:53:02;101268.00;;;31.92;20.45
43125;BME280;49182;50.788;7.318;2022-08-11T11:55:29;101253.78;;;31.90;20.79
43125;BME280;49182;50.788;7.318;2022-08-11T11:57:59;101274.06;;;31.99;20.74
43125;BME280;49182;50.788;7.318;2022-08-11T12:00:28;101265.09;;;32.03;20.96
43125;BME280;49182;50.788;7.318;2022-08-11T12:03:01;101269.53;;;32.09;21.31
43125;BME280;49182;50.788;7.318;2022-08-11T12:05:30;101268.00;;;32.24;21.04
43125;BME280;49182;50.788;7.318;2022-08-11T12:08:01;101243.63;;;32.17;20.45
43125;BME280;49182;50.788;7.318;2022-08-11T12:10:36;101236.66;;;32.31;20.24
43125;BME280;49182;50.788;7.318;2022-08-11T12:13:03;101252.13;;;32.58;20.39
43125;BME280;49182;50.788;7.318;2022-08-11T12:15:31;101241.84;;;32.70;19.83
43125;BME280;49182;50.788;7.318;2022-08-11T12:18:18;101242.41;;;32.77;19.58
43125;BME280;49182;50.788;7.318;2022-08-11T12:20:45;101223.03;;;32.83;19.44
43125;BME280;49182;50.788;7.318;2022-08-11T12:23:14;101230.72;;;32.97;19.31
43125;BME280;49182;50.788;7.318;2022-08-11T12:25:42;101227.47;;;33.00;19.97
43125;BME280;49182;50.788;7.318;2022-08-11T12:28:10;101212.41;;;33.02;19.80
43125;BME280;49182;50.788;7.318;2022-08-11T12:30:38;101212.72;;;33.16;19.22
43125;BME280;49182;50.788;7.318;2022-08-11T12:33:05;101213.78;;;33.10;19.25
43125;BME280;49182;50.788;7.318;2022-08-11T12:35:32;101203.41;;;33.12;19.42
43125;BME280;49182;50.788;7.318;2022-08-11T12:37:59;101213.78;;;33.10;19.58
43125;BME280;49182;50.788;7.318;2022-08-11T12:40:38;101213.78;;;33.05;19.84
43125;BME280;49182;50.788;7.318;2022-08-11T12:43:28;101193.53;;;32.96;20.48
43125;BME280;49182;50.788;7.318;2022-08-11T12:46:06;101201.75;;;33.16;20.41
43125;BME280;49182;50.788;7.318;2022-08-11T12:48:36;101198.28;;;33.25;20.28
43125;BME280;49182;50.788;7.318;2022-08-11T12:51:28;101190.38;;;33.39;19.56
43125;BME280;49182;50.788;7.318;2022-08-11T12:54:23;101181.88;;;33.51;19.16
43125;BME280;49182;50.788;7.318;2022-08-11T12:56:58;101180.00;;;33.71;19.41
43125;BME280;49182;50.788;7.318;2022-08-11T12:59:25;101171.22;;;33.90;19.77
43125;BME280;49182;50.788;7.318;2022-08-11T13:01:52;101174.19;;;34.13;18.86
43125;BME280;49182;50.788;7.318;2022-08-11T13:04:20;101173.66;;;34.22;18.46
43125;BME280;49182;50.788;7.318;2022-08-11T13:06:46;101141.06;;;34.05;18.53
43125;BME280;49182;50.788;7.318;2022-08-11T13:09:13;101173.34;;;34.33;18.51
43125;BME280;49182;50.788;7.318;2022-08-11T13:11:40;101167.63;;;34.30;18.35
43125;BME280;49182;50.788;7.318;2022-08-11T13:14:24;101163.69;;;34.51;18.25
43125;BME280;49182;50.788;7.318;2022-08-11T13:16:51;101159.31;;;34.55;18.36
43125;BME280;49182;50.788;7.318;2022-08-11T13:19:19;101166.22;;;34.42;18.67
43125;BME280;49182;50.788;7.318;2022-08-11T13:21:46;101153.84;;;34.45;18.63
43125;BME280;49182;50.788;7.318;2022-08-11T13:24:14;101157.34;;;34.61;18.66
43125;BME280;49182;50.788;7.318;2022-08-11T13:26:42;101143.38;;;34.62;18.04
43125;BME280;49182;50.788;7.318;2022-08-11T13:29:20;101154.31;;;34.67;17.87
43125;BME280;49182;50.788;7.318;2022-08-11T13:31:50;101146.91;;;34.68;17.46
43125;BME280;49182;50.788;7.318;2022-08-11T13:34:18;101148.25;;;34.75;17.61
43125;BME280;49182;50.788;7.318;2022-08-11T13:36:48;101149.06;;;34.76;17.69
43125;BME280;49182;50.788;7.318;2022-08-11T13:39:16;101152.66;;;34.71;17.34
43125;BME280;49182;50.788;7.318;2022-08-11T13:41:44;101150.16;;;34.80;17.54
43125;BME280;49182;50.788;7.318;2022-08-11T13:44:13;101140.16;;;35.04;17.28
43125;BME280;49182;50.788;7.318;2022-08-11T13:46:46;101136.47;;;35.19;16.98
43125;BME280;49182;50.788;7.318;2022-08-11T13:49:19;101140.19;;;35.38;17.13
43125;BME280;49182;50.788;7.318;2022-08-11T13:51:47;101131.34;;;35.46;16.54
43125;BME280;49182;50.788;7.318;2022-08-11T13:54:17;101127.44;;;35.52;16.64
43125;BME280;49182;50.788;7.318;2022-08-11T13:56:46;101126.00;;;35.60;16.45
43125;BME280;49182;50.788;7.318;2022-08-11T13:59:14;101113.72;;;35.52;16.04
43125;BME280;49182;50.788;7.318;2022-08-11T14:01:47;101122.94;;;35.66;16.29